createdAt,value
2023-03-29T00:02:56.964Z,96121.00
2023-03-29T00:08:24.965Z,96116.00
2023-03-29T00:13:53.281Z,96134.00
2023-03-29T00:19:21.431Z,96153.00
2023-03-29T00:24:49.572Z,96173.00
2023-03-29T00:30:17.759Z,96184.00
2023-03-29T00:35:46.521Z,96194.00
2023-03-29T00:41:14.852Z,96195.00
2023-03-29T00:46:44.176Z,96186.00
2023-03-29T00:52:16.545Z,96179.00
2023-03-29T00:57:46.972Z,96182.00
2023-03-29T01:03:24.754Z,96179.00
2023-03-29T01:09:01.565Z,96180.00
2023-03-29T01:14:41.852Z,96158.00
2023-03-29T01:20:23.967Z,96147.00
2023-03-29T01:26:18.970Z,96150.00
2023-03-29T01:32:16.815Z,96131.00
2023-03-29T01:37:58.628Z,96121.00
2023-03-29T01:43:44.277Z,96109.00
2023-03-29T01:49:18.840Z,96096.00
2023-03-29T01:55:10.110Z,96062.00
2023-03-29T02:00:40.004Z,96078.00
2023-03-29T02:06:11.568Z,96068.00
2023-03-29T02:11:42.678Z,96047.00
2023-03-29T02:17:23.030Z,96060.00
2023-03-29T02:23:14.715Z,96049.00
2023-03-29T02:28:43.245Z,96046.00
2023-03-29T02:34:31.973Z,96041.00
2023-03-29T02:40:13.156Z,96029.00
2023-03-29T02:45:49.258Z,96015.00
2023-03-29T02:51:38.239Z,96003.00
2023-03-29T02:57:09.468Z,95995.00
2023-03-29T03:02:39.020Z,95994.00
2023-03-29T03:08:16.695Z,95985.00
2023-03-29T03:13:45.670Z,95974.00
2023-03-29T03:19:20.007Z,95972.00
2023-03-29T03:24:59.828Z,95967.00
2023-03-29T03:30:28.919Z,95963.00
2023-03-29T03:36:29.209Z,95944.00
2023-03-29T03:41:58.070Z,95938.00
2023-03-29T03:47:26.076Z,95926.00
2023-03-29T03:52:56.928Z,95926.00
2023-03-29T03:58:26.067Z,95913.00
2023-03-29T04:03:54.534Z,95907.00
2023-03-29T04:09:24.364Z,95902.00
2023-03-29T04:15:07.022Z,95903.00
2023-03-29T04:20:35.282Z,95901.00
2023-03-29T04:26:04.185Z,95894.00
2023-03-29T04:31:56.542Z,95885.00
2023-03-29T04:37:44.079Z,95879.00
2023-03-29T04:43:15.620Z,95879.00
2023-03-29T04:48:54.297Z,95878.00
2023-03-29T04:54:32.103Z,95875.00
2023-03-29T05:00:15.694Z,95880.00
2023-03-29T05:06:07.636Z,95865.00
2023-03-29T05:11:38.405Z,95863.00
2023-03-29T05:17:06.594Z,95866.00
2023-03-29T05:22:36.396Z,95869.00
2023-03-29T05:28:04.649Z,95876.00
2023-03-29T05:33:33.832Z,95876.00
2023-03-29T05:39:01.976Z,95864.00
2023-03-29T05:44:30.742Z,95880.00
2023-03-29T05:50:09.822Z,95874.00
2023-03-29T05:55:38.334Z,95880.00
2023-03-29T06:01:13.492Z,95889.00
2023-03-29T06:07:02.361Z,95876.00
2023-03-29T06:12:31.590Z,95882.00
2023-03-29T06:18:02.418Z,95884.00
2023-03-29T06:23:31.425Z,95889.00
2023-03-29T06:28:59.435Z,95892.00
2023-03-29T06:34:27.954Z,95899.00
2023-03-29T06:40:21.331Z,95907.00
2023-03-29T06:45:50.405Z,95902.00
2023-03-29T06:51:26.747Z,95895.00
2023-03-29T06:56:57.904Z,95896.00
2023-03-29T07:02:29.061Z,95898.00
2023-03-29T07:08:30.998Z,95890.00
2023-03-29T07:14:03.344Z,95910.00
2023-03-29T07:19:32.464Z,95915.00
2023-03-29T07:25:17.263Z,95922.00
2023-03-29T07:30:45.784Z,95913.00
2023-03-29T07:36:20.036Z,95914.00
2023-03-29T07:41:48.618Z,95916.00
2023-03-29T07:47:16.801Z,95916.00
2023-03-29T07:52:46.229Z,95936.00
2023-03-29T07:58:16.070Z,95928.00
2023-03-29T08:03:44.436Z,95925.00
2023-03-29T08:09:12.975Z,95935.00
2023-03-29T08:14:44.291Z,95936.00
2023-03-29T08:20:24.674Z,95935.00
2023-03-29T08:25:56.264Z,95936.00
2023-03-29T08:31:24.484Z,95929.00
2023-03-29T08:36:55.668Z,95928.00
2023-03-29T08:42:53.334Z,95930.00
2023-03-29T08:48:25.782Z,95937.00
2023-03-29T08:54:05.618Z,95931.00
2023-03-29T08:59:56.223Z,95932.00
2023-03-29T09:05:40.149Z,95923.00
2023-03-29T09:11:26.380Z,95936.00
2023-03-29T09:17:33.204Z,95926.00
2023-03-29T09:23:13.639Z,95936.00
2023-03-29T09:29:26.210Z,95942.00
2023-03-29T09:35:22.912Z,95942.00
2023-03-29T09:40:56.739Z,95941.00
2023-03-29T09:46:40.536Z,95946.00
2023-03-29T09:52:15.126Z,95940.00
2023-03-29T09:57:50.212Z,95914.00
2023-03-29T10:03:26.106Z,95910.00
2023-03-29T10:09:22.046Z,95915.00
2023-03-29T10:14:54.626Z,95913.00
2023-03-29T10:20:25.330Z,95905.00
2023-03-29T10:25:54.423Z,95916.00
2023-03-29T10:31:23.154Z,95908.00
2023-03-29T10:37:02.160Z,95911.00
2023-03-29T10:42:30.096Z,95893.00
2023-03-29T10:47:59.422Z,95885.00
2023-03-29T10:53:34.282Z,95881.00
2023-03-29T10:59:15.868Z,95895.00
2023-03-29T11:05:14.828Z,95891.00
2023-03-29T11:11:38.792Z,95895.00
2023-03-29T11:17:31.675Z,95893.00
2023-03-29T11:23:37.589Z,95880.00
2023-03-29T11:29:09.369Z,95880.00
2023-03-29T11:35:10.967Z,95882.00
2023-03-29T11:41:12.887Z,95869.00
2023-03-29T11:47:06.329Z,95877.00
2023-03-29T11:52:45.513Z,95871.00
2023-03-29T11:58:31.406Z,95868.00
2023-03-29T12:04:38.941Z,95865.00
2023-03-29T12:10:09.120Z,95859.00
2023-03-29T12:15:45.329Z,95849.00
2023-03-29T12:21:21.354Z,95852.00
2023-03-29T12:27:24.533Z,95853.00
2023-03-29T12:33:21.603Z,95868.00
2023-03-29T12:38:56.124Z,95835.00
2023-03-29T12:44:24.533Z,95833.00
2023-03-29T12:51:01.135Z,95826.00
2023-03-29T12:57:19.171Z,95820.00
2023-03-29T13:03:04.779Z,95819.00
2023-03-29T13:08:40.760Z,95812.00
2023-03-29T13:14:19.890Z,95821.00
2023-03-29T13:19:58.857Z,95820.00
2023-03-29T13:25:45.732Z,95814.00
2023-03-29T13:32:00.479Z,95821.00
2023-03-29T13:37:34.263Z,95811.00
2023-03-29T13:43:19.491Z,95804.00
2023-03-29T13:49:04.831Z,95800.00
2023-03-29T13:54:44.247Z,95791.00
2023-03-29T14:00:15.632Z,95793.00
2023-03-29T14:05:49.749Z,95803.00
2023-03-29T14:11:25.783Z,95783.00
2023-03-29T14:16:56.222Z,95792.00
2023-03-29T14:22:24.473Z,95792.00
2023-03-29T14:27:52.564Z,95779.00
2023-03-29T14:33:34.562Z,95775.00
2023-03-29T14:39:10.199Z,95799.00
2023-03-29T14:44:38.421Z,95785.00
2023-03-29T14:50:07.224Z,95773.00
2023-03-29T14:55:36.606Z,95780.00
2023-03-29T15:01:17.734Z,95782.00
2023-03-29T15:06:50.756Z,95792.00
2023-03-29T15:12:18.950Z,95801.00
2023-03-29T15:17:51.078Z,95799.00
2023-03-29T15:23:25.050Z,95800.00
2023-03-29T15:29:03.050Z,95806.00
2023-03-29T15:34:35.447Z,95801.00
2023-03-29T15:40:09.694Z,95814.00
2023-03-29T15:45:37.855Z,95810.00
2023-03-29T15:51:06.948Z,95797.00
2023-03-29T15:56:49.626Z,95786.00
2023-03-29T16:02:20.266Z,95778.00
2023-03-29T16:07:48.377Z,95776.00
2023-03-29T16:13:16.578Z,95776.00
2023-03-29T16:18:44.725Z,95778.00
2023-03-29T16:24:25.587Z,95770.00
2023-03-29T16:29:53.801Z,95773.00
2023-03-29T16:35:31.421Z,95780.00
2023-03-29T16:41:00.046Z,95781.00
2023-03-29T16:46:28.315Z,95782.00
2023-03-29T16:51:57.250Z,95766.00
2023-03-29T16:57:26.600Z,95771.00
2023-03-29T17:02:56.136Z,95781.00
2023-03-29T17:08:24.235Z,95777.00
2023-03-29T17:13:52.363Z,95751.00
2023-03-29T17:19:21.402Z,95748.00
2023-03-29T17:24:49.711Z,95744.00
2023-03-29T17:30:17.885Z,95750.00
2023-03-29T17:35:46.266Z,95747.00
2023-03-29T17:41:14.379Z,95743.00
2023-03-29T17:46:42.571Z,95760.00
2023-03-29T17:52:10.857Z,95758.00
2023-03-29T17:57:39.246Z,95758.00
2023-03-29T18:03:07.327Z,95751.00
2023-03-29T18:08:35.839Z,95767.00
2023-03-29T18:14:04.880Z,95767.00
2023-03-29T18:19:32.924Z,95759.00
2023-03-29T18:25:01.026Z,95756.00
2023-03-29T18:30:29.057Z,95756.00
2023-03-29T18:35:57.354Z,95751.00
2023-03-29T18:41:26.383Z,95753.00
2023-03-29T18:46:54.674Z,95752.00
2023-03-29T18:52:23.462Z,95757.00
2023-03-29T18:57:51.525Z,95751.00
2023-03-29T19:03:19.605Z,95761.00
2023-03-29T19:08:47.798Z,95761.00
2023-03-29T19:14:17.442Z,95764.00
2023-03-29T19:19:46.417Z,95758.00
2023-03-29T19:25:15.837Z,95755.00
2023-03-29T19:30:43.552Z,95754.00
2023-03-29T19:36:12.318Z,95752.00
2023-03-29T19:41:41.966Z,95738.00
2023-03-29T19:47:10.335Z,95742.00
2023-03-29T19:52:40.438Z,95737.00
2023-03-29T19:58:09.538Z,95736.00
2023-03-29T20:03:39.058Z,95738.00
2023-03-29T20:09:08.921Z,95748.00
2023-03-29T20:14:40.485Z,95739.00
2023-03-29T20:20:10.419Z,95749.00
2023-03-29T20:25:38.885Z,95743.00
2023-03-29T20:31:11.193Z,95739.00
2023-03-29T20:36:40.563Z,95727.00
2023-03-29T20:42:08.626Z,95729.00
2023-03-29T20:47:42.579Z,95714.00
2023-03-29T20:53:10.914Z,95707.00
2023-03-29T20:58:43.969Z,95693.00
2023-03-29T21:04:12.936Z,95699.00
2023-03-29T21:09:42.392Z,95680.00
2023-03-29T21:15:13.450Z,95673.00
2023-03-29T21:20:42.314Z,95660.00
2023-03-29T21:26:10.662Z,95658.00
2023-03-29T21:31:39.280Z,95638.00
2023-03-29T21:37:08.460Z,95646.00
2023-03-29T21:42:37.869Z,95646.00
2023-03-29T21:48:06.422Z,95646.00
2023-03-29T21:53:34.769Z,95642.00
2023-03-29T21:59:03.592Z,95640.00
2023-03-29T22:04:37.257Z,95647.00
2023-03-29T22:10:09.367Z,95640.00
2023-03-29T22:15:39.066Z,95643.00
2023-03-29T22:21:09.177Z,95650.00
2023-03-29T22:26:36.832Z,95645.00
2023-03-29T22:32:05.919Z,95635.00
2023-03-29T22:37:34.354Z,95624.00
2023-03-29T22:43:05.187Z,95620.00
2023-03-29T22:48:33.739Z,95615.00
2023-03-29T22:54:02.005Z,95603.00
2023-03-29T22:59:29.838Z,95607.00
2023-03-29T23:04:57.937Z,95594.00
2023-03-29T23:10:29.003Z,95593.00
2023-03-29T23:16:00.002Z,95580.00
2023-03-29T23:21:28.310Z,95575.00
2023-03-29T23:26:57.547Z,95583.00
2023-03-29T23:32:25.818Z,95568.00
2023-03-29T23:37:54.478Z,95567.00
2023-03-29T23:43:22.855Z,95566.00
2023-03-29T23:48:52.665Z,95551.00
2023-03-29T23:54:20.881Z,95552.00
2023-03-29T23:59:52.770Z,95548.00
